Terminal Aerodrome Forecast
Issued by NWS Jacksonville, FL

Home | Current Version | Previous Version | Text Only | Print | Product List | Glossary On
Versions: 1 2 3 4 5 6 7 8 9 10 11 12 13 14 15 16
000
FTUS42 KJAX 280500
TAFJAX
TAF
KJAX 280520Z 2806/2906 00000KT 5SM BR SCT006 SCT250
      TEMPO 2806/2810 2SM BR BKN006
     FM281000 00000KT 3SM BR BKN006
      TEMPO 2810/2814 1/2SM FG OVC004
     FM281500 21005KT P6SM BKN015
     FM281800 23007KT P6SM SCT035 BKN250=

USA.gov is the U.S. government's official web portal to all federal, state and local government web resources and services.